createdAt,value
2022-09-18T00:01:24.681Z,100.00
2022-09-18T00:04:13.919Z,100.00
2022-09-18T00:07:01.006Z,100.00
2022-09-18T00:09:48.508Z,100.00
2022-09-18T00:12:34.756Z,100.00
2022-09-18T00:15:21.159Z,100.00
2022-09-18T00:18:08.925Z,100.00
2022-09-18T00:20:55.212Z,100.00
2022-09-18T00:23:42.721Z,100.00
2022-09-18T00:26:30.242Z,100.00
2022-09-18T00:29:17.545Z,100.00
2022-09-18T00:32:03.800Z,100.00
2022-09-18T00:34:50.315Z,100.00
2022-09-18T00:37:38.158Z,100.00
2022-09-18T00:40:24.459Z,100.00
2022-09-18T00:43:37.607Z,100.00
2022-09-18T00:46:29.934Z,100.00
2022-09-18T00:49:25.895Z,100.00
2022-09-18T00:52:14.535Z,100.00
2022-09-18T00:55:09.255Z,100.00
2022-09-18T00:57:57.173Z,100.00
2022-09-18T01:00:45.925Z,100.00
2022-09-18T01:03:32.969Z,100.00
2022-09-18T01:06:34.726Z,100.00
2022-09-18T01:09:33.004Z,100.00
2022-09-18T01:12:27.029Z,100.00
2022-09-18T01:15:31.191Z,100.00
2022-09-18T01:18:43.722Z,100.00
2022-09-18T01:21:30.606Z,100.00
2022-09-18T01:24:45.366Z,100.00
2022-09-18T01:28:10.774Z,100.00
2022-09-18T01:31:02.530Z,100.00
2022-09-18T01:33:53.183Z,100.00
2022-09-18T01:36:41.971Z,100.00
2022-09-18T01:39:37.835Z,100.00
2022-09-18T01:42:26.714Z,100.00
2022-09-18T01:45:16.928Z,100.00
2022-09-18T01:48:08.690Z,100.00
2022-09-18T01:51:04.925Z,100.00
2022-09-18T01:53:56.117Z,100.00
2022-09-18T01:56:49.094Z,100.00
2022-09-18T01:59:42.523Z,100.00
2022-09-18T02:02:48.054Z,100.00
2022-09-18T02:05:39.356Z,100.00
2022-09-18T02:08:38.718Z,100.00
2022-09-18T02:11:25.107Z,100.00
2022-09-18T02:14:15.585Z,100.00
2022-09-18T02:17:13.821Z,100.00
2022-09-18T02:20:05.638Z,100.00
2022-09-18T02:23:01.197Z,100.00
2022-09-18T02:25:53.311Z,100.00
2022-09-18T02:28:42.970Z,100.00
2022-09-18T02:31:29.638Z,100.00
2022-09-18T02:34:18.066Z,100.00
2022-09-18T02:37:24.696Z,100.00
2022-09-18T02:40:31.487Z,100.00
2022-09-18T02:43:28.868Z,100.00
2022-09-18T02:46:30.125Z,100.00
2022-09-18T02:49:28.771Z,100.00
2022-09-18T02:52:20.354Z,100.00
2022-09-18T02:55:16.534Z,100.00
2022-09-18T02:58:16.526Z,100.00
2022-09-18T03:01:05.555Z,100.00
2022-09-18T03:03:52.988Z,100.00
2022-09-18T03:06:40.939Z,100.00
2022-09-18T03:09:27.728Z,100.00
2022-09-18T03:12:15.047Z,100.00
2022-09-18T03:15:04.936Z,100.00
2022-09-18T03:17:51.774Z,100.00
2022-09-18T03:20:38.619Z,100.00
2022-09-18T03:23:25.025Z,100.00
2022-09-18T03:26:11.955Z,100.00
2022-09-18T03:28:58.389Z,100.00
2022-09-18T03:31:47.020Z,100.00
2022-09-18T03:34:33.184Z,100.00
2022-09-18T03:37:20.261Z,100.00
2022-09-18T03:40:07.469Z,100.00
2022-09-18T03:42:54.041Z,100.00
2022-09-18T03:45:43.046Z,100.00
2022-09-18T03:48:30.123Z,100.00
2022-09-18T03:51:19.057Z,100.00
2022-09-18T03:54:07.197Z,100.00
2022-09-18T03:56:54.223Z,100.00
2022-09-18T03:59:41.213Z,100.00
2022-09-18T04:02:30.983Z,100.00
2022-09-18T04:05:32.107Z,100.00
2022-09-18T04:08:30.804Z,100.00
2022-09-18T04:11:18.657Z,100.00
2022-09-18T04:14:05.055Z,100.00
2022-09-18T04:16:52.825Z,100.00
2022-09-18T04:19:39.590Z,100.00
2022-09-18T04:22:29.745Z,100.00
2022-09-18T04:25:16.897Z,100.00
2022-09-18T04:28:04.601Z,100.00
2022-09-18T04:30:52.438Z,100.00
2022-09-18T04:33:39.796Z,100.00
2022-09-18T04:36:26.201Z,100.00
2022-09-18T04:39:13.254Z,100.00
2022-09-18T04:42:02.621Z,100.00
2022-09-18T04:44:52.797Z,100.00
2022-09-18T04:47:41.354Z,100.00
2022-09-18T04:50:28.825Z,100.00
2022-09-18T04:53:21.827Z,100.00
2022-09-18T04:56:09.187Z,100.00
2022-09-18T04:58:55.493Z,100.00
2022-09-18T05:01:42.219Z,100.00
2022-09-18T05:04:28.971Z,100.00
2022-09-18T05:07:16.874Z,100.00
2022-09-18T05:10:05.114Z,100.00
2022-09-18T05:12:54.595Z,100.00
2022-09-18T05:15:52.804Z,100.00
2022-09-18T05:18:40.799Z,100.00
2022-09-18T05:21:32.908Z,100.00
2022-09-18T05:24:20.873Z,100.00
2022-09-18T05:27:22.426Z,100.00
2022-09-18T05:30:15.659Z,100.00
2022-09-18T05:33:07.727Z,100.00
2022-09-18T05:35:58.241Z,100.00
2022-09-18T05:38:45.695Z,100.00
2022-09-18T05:41:34.935Z,100.00
2022-09-18T05:44:23.589Z,100.00
2022-09-18T05:47:10.909Z,100.00
2022-09-18T05:50:10.454Z,100.00
2022-09-18T05:53:13.146Z,100.00
2022-09-18T05:56:04.333Z,100.00
2022-09-18T06:01:47.128Z,100.00
2022-09-18T06:04:35.608Z,100.00
2022-09-18T06:07:28.780Z,100.00
2022-09-18T06:10:27.657Z,100.00
2022-09-18T06:13:20.063Z,100.00
2022-09-18T06:16:15.744Z,100.00
2022-09-18T06:19:08.791Z,100.00
2022-09-18T06:22:01.645Z,100.00
2022-09-18T06:24:52.391Z,100.00
2022-09-18T06:27:53.660Z,100.00
2022-09-18T06:30:47.634Z,100.00
2022-09-18T06:33:36.345Z,100.00
2022-09-18T06:36:28.664Z,100.00
2022-09-18T06:39:29.094Z,99.82
2022-09-18T06:42:17.860Z,100.00
2022-09-18T06:45:13.228Z,100.00
2022-09-18T06:48:07.643Z,100.00
2022-09-18T06:51:00.196Z,99.71
2022-09-18T06:53:52.375Z,99.58
2022-09-18T06:56:49.635Z,97.91
2022-09-18T06:59:43.112Z,95.09
2022-09-18T07:02:32.514Z,94.43
2022-09-18T07:05:22.174Z,93.28
2022-09-18T07:08:10.018Z,93.51
2022-09-18T07:11:04.704Z,88.08
2022-09-18T07:14:00.811Z,87.67
2022-09-18T07:16:59.737Z,85.27
2022-09-18T07:19:57.788Z,86.31
2022-09-18T07:22:56.775Z,85.15
2022-09-18T07:25:48.119Z,83.22
2022-09-18T07:28:36.251Z,83.48
2022-09-18T07:31:50.594Z,83.90
2022-09-18T07:34:49.776Z,81.69
2022-09-18T07:37:53.862Z,81.55
2022-09-18T07:41:15.853Z,81.40
2022-09-18T07:44:15.105Z,79.91
2022-09-18T07:47:09.008Z,81.29
2022-09-18T07:50:00.619Z,80.02
2022-09-18T07:53:05.665Z,79.44
2022-09-18T07:59:28.177Z,80.61
2022-09-18T08:02:25.871Z,80.00
2022-09-18T08:05:32.684Z,79.60
2022-09-18T08:11:45.666Z,82.01
2022-09-18T08:14:43.127Z,82.12
2022-09-18T08:17:51.059Z,81.85
2022-09-18T08:20:46.643Z,82.62
2022-09-18T08:23:58.649Z,83.04
2022-09-18T08:26:56.500Z,82.80
2022-09-18T08:29:48.592Z,81.41
2022-09-18T08:32:42.829Z,79.56
2022-09-18T08:35:47.583Z,79.01
2022-09-18T08:38:42.833Z,79.13
2022-09-18T08:42:07.917Z,79.35
2022-09-18T08:45:33.589Z,75.53
2022-09-18T08:51:56.660Z,78.02
2022-09-18T08:55:04.547Z,77.27
2022-09-18T08:58:36.617Z,78.64
2022-09-18T09:02:35.577Z,78.52
2022-09-18T09:06:12.691Z,79.17
2022-09-18T09:12:40.609Z,80.09
2022-09-18T09:16:25.515Z,79.26
2022-09-18T09:23:06.553Z,79.41
2022-09-18T09:26:29.548Z,79.37
2022-09-18T09:29:43.630Z,79.26
2022-09-18T09:45:59.356Z,79.20
2022-09-18T09:52:26.862Z,78.80
2022-09-18T09:55:34.781Z,80.82
2022-09-18T09:58:47.619Z,81.12
2022-09-18T10:01:51.849Z,82.52
2022-09-18T10:04:53.628Z,82.59
2022-09-18T10:07:57.619Z,79.96
2022-09-18T10:17:24.941Z,77.87
2022-09-18T10:20:29.784Z,76.28
2022-09-18T10:23:39.934Z,73.12
2022-09-18T10:26:50.510Z,71.36
2022-09-18T10:29:57.287Z,71.68
2022-09-18T10:32:54.647Z,71.81
2022-09-18T10:36:07.730Z,71.73
2022-09-18T10:39:37.637Z,71.04
2022-09-18T10:45:39.631Z,72.15
2022-09-18T10:48:33.611Z,72.50
2022-09-18T10:51:30.651Z,73.19
2022-09-18T10:54:27.606Z,71.06
2022-09-18T11:04:18.118Z,73.82
2022-09-18T11:07:08.097Z,70.91
2022-09-18T11:10:15.859Z,70.97
2022-09-18T11:13:10.039Z,71.54
2022-09-18T11:19:28.148Z,72.54
2022-09-18T11:22:41.396Z,73.22
2022-09-18T11:25:37.768Z,73.67
2022-09-18T11:32:09.663Z,72.48
2022-09-18T11:35:02.084Z,69.60
2022-09-18T11:37:53.148Z,70.51
2022-09-18T11:40:45.092Z,69.20
2022-09-18T11:43:38.579Z,66.12
2022-09-18T11:46:34.307Z,66.36
2022-09-18T11:49:30.012Z,65.20
2022-09-18T11:52:31.307Z,62.71
2022-09-18T11:55:43.338Z,63.05
2022-09-18T11:58:44.192Z,60.71
2022-09-18T12:01:33.138Z,61.12
2022-09-18T12:04:40.266Z,59.04
2022-09-18T12:07:40.584Z,58.33
2022-09-18T12:10:45.237Z,59.04
2022-09-18T12:13:31.153Z,57.31
2022-09-18T12:16:29.068Z,56.54
2022-09-18T12:19:21.547Z,52.46
2022-09-18T12:22:18.839Z,51.46
2022-09-18T12:25:13.084Z,50.37
2022-09-18T12:28:00.706Z,55.89
2022-09-18T12:31:03.085Z,53.60
2022-09-18T12:34:01.418Z,54.67
2022-09-18T12:37:15.136Z,52.45
2022-09-18T12:40:34.123Z,51.34
2022-09-18T12:43:38.864Z,47.49
2022-09-18T12:47:00.825Z,47.26
2022-09-18T12:50:05.492Z,47.81
2022-09-18T12:53:11.720Z,46.70
2022-09-18T12:56:11.744Z,47.00
2022-09-18T12:59:15.752Z,43.50
2022-09-18T13:02:06.179Z,43.35
2022-09-18T13:05:00.742Z,42.68
2022-09-18T13:07:46.774Z,41.12
2022-09-18T13:10:42.729Z,42.98
2022-09-18T13:14:25.625Z,45.53
2022-09-18T13:17:24.197Z,47.23
2022-09-18T13:20:16.219Z,48.51
2022-09-18T13:23:03.151Z,50.56
2022-09-18T13:25:52.000Z,50.43
2022-09-18T13:28:41.959Z,50.67
2022-09-18T13:31:35.122Z,52.06
2022-09-18T13:34:22.834Z,52.17
2022-09-18T13:37:15.394Z,52.07
2022-09-18T13:40:10.572Z,51.66
2022-09-18T13:43:05.091Z,54.98
2022-09-18T13:45:51.424Z,66.62
2022-09-18T13:48:45.595Z,93.76
2022-09-18T13:51:37.564Z,98.96
2022-09-18T13:54:28.470Z,94.11
2022-09-18T13:57:19.448Z,92.73
2022-09-18T14:00:32.886Z,99.20
2022-09-18T14:03:19.402Z,100.00
2022-09-18T14:06:41.016Z,100.00
2022-09-18T14:09:52.842Z,100.00
2022-09-18T14:12:39.215Z,100.00
2022-09-18T14:15:25.914Z,100.00
2022-09-18T14:18:14.563Z,96.10
2022-09-18T14:21:14.874Z,98.22
2022-09-18T14:24:19.964Z,93.83
2022-09-18T14:27:28.053Z,90.86
2022-09-18T14:30:14.259Z,91.56
2022-09-18T14:33:04.032Z,89.85
2022-09-18T14:35:57.167Z,93.87
2022-09-18T14:38:46.325Z,95.49
2022-09-18T14:41:35.605Z,94.41
2022-09-18T14:44:24.617Z,98.80
2022-09-18T14:47:16.898Z,100.00
2022-09-18T14:50:03.894Z,100.00
2022-09-18T14:52:50.603Z,100.00
2022-09-18T14:55:39.790Z,100.00
2022-09-18T14:58:25.959Z,100.00
2022-09-18T15:01:16.429Z,96.23
2022-09-18T15:04:02.968Z,92.22
2022-09-18T15:06:49.934Z,87.36
2022-09-18T15:09:35.727Z,85.88
2022-09-18T15:12:24.474Z,84.08
2022-09-18T15:15:40.794Z,79.71
2022-09-18T15:18:29.179Z,77.00
2022-09-18T15:21:33.065Z,74.31
2022-09-18T15:24:20.005Z,78.91
2022-09-18T15:27:06.252Z,76.86
2022-09-18T15:30:00.858Z,77.65
2022-09-18T15:32:51.765Z,78.98
2022-09-18T15:35:37.979Z,82.47
2022-09-18T15:38:25.071Z,85.32
2022-09-18T15:41:36.450Z,85.90
2022-09-18T15:44:45.635Z,86.32
2022-09-18T15:47:39.272Z,87.00
2022-09-18T15:50:31.780Z,88.00
2022-09-18T15:53:19.920Z,87.22
2022-09-18T15:56:07.158Z,86.42
2022-09-18T15:58:58.310Z,87.95
2022-09-18T16:01:48.512Z,83.87
2022-09-18T16:04:35.419Z,83.00
2022-09-18T16:07:22.898Z,81.91
2022-09-18T16:10:29.657Z,84.64
2022-09-18T16:13:15.827Z,87.54
2022-09-18T16:16:08.068Z,91.79
2022-09-18T16:18:56.544Z,91.22
2022-09-18T16:21:43.379Z,93.33
2022-09-18T16:24:30.544Z,94.61
2022-09-18T16:27:18.124Z,93.97
2022-09-18T16:30:05.270Z,92.37
2022-09-18T16:33:02.302Z,93.19
2022-09-18T16:35:54.947Z,93.21
2022-09-18T16:38:40.997Z,94.59
2022-09-18T16:41:30.058Z,94.63
2022-09-18T16:44:18.300Z,94.14
2022-09-18T16:47:06.018Z,94.46
2022-09-18T16:49:53.456Z,92.89
2022-09-18T16:52:41.172Z,94.51
2022-09-18T16:55:28.669Z,90.49
2022-09-18T16:58:15.115Z,92.89
2022-09-18T17:01:01.512Z,95.09
2022-09-18T17:03:50.606Z,89.97
2022-09-18T17:06:40.578Z,93.49
2022-09-18T17:09:26.690Z,89.47
2022-09-18T17:12:14.268Z,86.59
2022-09-18T17:15:03.125Z,85.51
2022-09-18T17:17:49.558Z,84.08
2022-09-18T17:20:35.874Z,85.72
2022-09-18T17:23:22.471Z,83.18
2022-09-18T17:26:12.949Z,85.19
2022-09-18T17:29:00.592Z,84.30
2022-09-18T17:31:46.892Z,85.63
2022-09-18T17:34:33.998Z,83.01
2022-09-18T17:37:20.158Z,84.25
2022-09-18T17:40:07.097Z,85.13
2022-09-18T17:42:53.921Z,84.95
2022-09-18T17:45:43.518Z,83.12
2022-09-18T17:48:31.876Z,85.23
2022-09-18T17:51:20.129Z,85.53
2022-09-18T17:54:08.220Z,85.81
2022-09-18T17:56:55.748Z,83.43
2022-09-18T17:59:43.892Z,84.74
2022-09-18T18:02:31.691Z,84.47
2022-09-18T18:05:18.179Z,82.09
2022-09-18T18:08:07.280Z,84.79
2022-09-18T18:10:55.657Z,83.87
2022-09-18T18:13:43.867Z,86.26
2022-09-18T18:16:31.311Z,96.51
2022-09-18T18:19:18.885Z,94.83
2022-09-18T18:22:06.501Z,92.97
2022-09-18T18:24:52.825Z,90.85
2022-09-18T18:27:40.727Z,87.01
2022-09-18T18:30:28.280Z,92.16
2022-09-18T18:33:16.018Z,95.41
2022-09-18T18:36:09.079Z,98.22
2022-09-18T18:38:57.738Z,96.84
2022-09-18T18:41:44.992Z,97.85
2022-09-18T18:44:33.295Z,99.54
2022-09-18T18:47:20.184Z,100.00
2022-09-18T18:50:06.780Z,100.00
2022-09-18T18:52:52.935Z,100.00
2022-09-18T18:55:39.650Z,100.00
2022-09-18T18:58:26.724Z,100.00
2022-09-18T19:01:14.726Z,100.00
2022-09-18T19:04:02.119Z,100.00
2022-09-18T19:06:49.030Z,100.00
2022-09-18T19:09:35.288Z,100.00
2022-09-18T19:12:21.996Z,100.00
2022-09-18T19:15:08.017Z,99.25
2022-09-18T19:17:58.097Z,98.42
2022-09-18T19:20:45.439Z,97.85
2022-09-18T19:23:31.582Z,97.28
2022-09-18T19:26:17.697Z,95.47
2022-09-18T19:29:08.824Z,91.16
2022-09-18T19:31:55.344Z,91.97
2022-09-18T19:34:41.930Z,91.87
2022-09-18T19:37:28.624Z,91.70
2022-09-18T19:40:17.717Z,92.94
2022-09-18T19:43:06.657Z,90.89
2022-09-18T19:45:53.883Z,91.54
2022-09-18T19:48:41.116Z,91.69
2022-09-18T19:51:28.789Z,93.06
2022-09-18T19:54:14.771Z,90.62
2022-09-18T19:57:02.249Z,94.79
2022-09-18T19:59:52.638Z,96.35
2022-09-18T20:02:38.849Z,96.63
2022-09-18T20:05:24.962Z,100.00
2022-09-18T20:08:10.732Z,100.00
2022-09-18T20:10:56.801Z,97.05
2022-09-18T20:13:42.625Z,97.88
2022-09-18T20:16:29.600Z,96.94
2022-09-18T20:19:16.128Z,97.17
2022-09-18T20:22:02.987Z,99.36
2022-09-18T20:24:53.395Z,100.00
2022-09-18T20:27:41.104Z,99.56
2022-09-18T20:30:27.378Z,97.98
2022-09-18T20:33:13.644Z,96.55
2022-09-18T20:35:59.523Z,94.61
2022-09-18T20:38:46.055Z,96.34
2022-09-18T20:41:32.299Z,96.70
2022-09-18T20:44:19.060Z,97.11
2022-09-18T20:47:05.300Z,97.84
2022-09-18T20:49:52.641Z,97.51
2022-09-18T20:52:43.104Z,100.00
2022-09-18T20:55:29.472Z,96.77
2022-09-18T20:58:15.838Z,95.51
2022-09-18T21:01:08.429Z,97.43
2022-09-18T21:03:58.243Z,98.14
2022-09-18T21:06:45.533Z,97.28
2022-09-18T21:09:31.592Z,96.77
2022-09-18T21:12:17.380Z,100.00
2022-09-18T21:15:04.171Z,96.00
2022-09-18T21:17:51.343Z,97.32
2022-09-18T21:20:37.482Z,95.97
2022-09-18T21:23:42.934Z,94.75
2022-09-18T21:26:36.932Z,93.96
2022-09-18T21:29:26.081Z,92.28
2022-09-18T21:32:12.382Z,91.49
2022-09-18T21:35:03.434Z,92.08
2022-09-18T21:37:49.488Z,90.67
2022-09-18T21:40:36.521Z,92.54
2022-09-18T21:43:23.161Z,91.69
2022-09-18T21:46:11.256Z,92.58
2022-09-18T21:48:57.509Z,92.33
2022-09-18T21:51:43.965Z,91.32
2022-09-18T21:54:31.913Z,95.05
2022-09-18T21:57:18.253Z,94.68
2022-09-18T22:00:08.256Z,93.79
2022-09-18T22:02:59.374Z,93.94
2022-09-18T22:05:46.848Z,94.64
2022-09-18T22:08:32.891Z,94.57
2022-09-18T22:11:20.841Z,95.30
2022-09-18T22:14:19.138Z,95.13
2022-09-18T22:17:07.547Z,94.18
2022-09-18T22:19:53.450Z,96.06
2022-09-18T22:22:39.742Z,94.77
2022-09-18T22:25:25.531Z,93.86
2022-09-18T22:28:11.765Z,94.37
2022-09-18T22:30:58.084Z,92.33
2022-09-18T22:33:46.144Z,94.93
2022-09-18T22:36:32.838Z,96.12
2022-09-18T22:39:20.554Z,96.54
2022-09-18T22:42:06.966Z,96.30
2022-09-18T22:44:53.359Z,96.34
2022-09-18T22:47:39.109Z,93.84
2022-09-18T22:50:25.450Z,92.26
2022-09-18T22:53:11.681Z,93.04
2022-09-18T22:56:03.415Z,91.70
2022-09-18T22:58:49.723Z,92.32
2022-09-18T23:01:41.132Z,92.67
2022-09-18T23:04:29.308Z,92.72
2022-09-18T23:07:16.077Z,90.58
2022-09-18T23:10:01.895Z,89.97
2022-09-18T23:12:48.378Z,91.14
2022-09-18T23:15:36.730Z,90.85
2022-09-18T23:18:23.004Z,91.97
2022-09-18T23:21:14.241Z,91.68
2022-09-18T23:24:01.384Z,92.52
2022-09-18T23:26:49.213Z,91.34
2022-09-18T23:29:35.551Z,90.96
2022-09-18T23:32:21.875Z,90.82
2022-09-18T23:35:08.632Z,91.48
2022-09-18T23:37:54.974Z,90.45
2022-09-18T23:40:43.101Z,91.63
2022-09-18T23:43:29.324Z,88.93
2022-09-18T23:46:16.049Z,89.14
2022-09-18T23:49:02.199Z,89.08
2022-09-18T23:51:48.500Z,88.02
2022-09-18T23:54:34.671Z,88.29
2022-09-18T23:57:22.607Z,89.46
